PASN/SNP METAR and TAF weather

Enter ICAO airport designator
Station Type Date Time Source
PASN METAR 2018/12/13 07:53 UTC NOAA

PASN 130753Z AUTO 27007KT 10SM FEW039 SCT055 BKN110 M08/M12 A2938 RMK AO2 SLP951 T10781117 TSNO


Station Type Date Time Source
PASN Decoded METAR 2018/12/13 07:53 UTC NOAA

ST PAUL ISLAND AIRPORT, AK, United States (PASN) 57-10N 170-13W 9M
Dec 13, 2018 - 02:53 AM EST / 2018.12.13 0753 UTC
Wind: from the W (270 degrees) at 8 MPH (7 KT):0
Visibility: 10 mile(s):0
Sky conditions: mostly cloudy
Temperature: 18.0 F (-7.8 C)
Windchill: 8 F (-13 C):1
Dew Point: 10.9 F (-11.7 C)
Relative Humidity: 73%
Pressure (altimeter): 29.38 in. Hg (994 hPa)
ob: PASN 130753Z AUTO 27007KT 10SM FEW039 SCT055 BKN110 M08/M12 A2938 RMK AO2 SLP951 T10781117 TSNO
cycle: 8

Station Type Date Time Source
PASN TAF 2018/12/13 06:36 UTC NOAA

TAF PASN 130534Z 1306/1406 32010KT 3SM -SN FEW010 BKN025 OVC080
TEMPO 1306/1308 2SM -SN BKN020
FM130900 30015G25KT P6SM -SHSN BKN050
FM140300 36010KT P6SM BKN100


Example: see airport list